Карточка аэропорта UWLW

Внимание!
Информация на этой странице в стадии наполнения.
Если вы не увидели какой-то информации, или заметили неточность - пожалуйста сообщите нам!
Спасибо!
Команда RU-STAFF
Название аэропортаВосточный
Название аэропорта (англ.)Vostochny
Превышение252 ft. (76.8 m.)
Координаты54°24', 48°48'
Высота перехода900m
Эшелон переходаQFE>=726mm:FL050; QFE<726:FL060
Коды ответчика6725-6727
Зона ОрВДСамара РПИ (UWWW)
Данные METARUWLW 171836Z 26004G09MPS 210V010 2100 -TSRA BKN020CB 21/20 Q1014 R02/290150 NOSIG RMK QFE754/1005
Проноз погоды (TAF)UWLW 171700Z 1718/1818 10003MPS 9999 SCT030 TX31/1812Z TN20/1801Z TEMPO 1718/1806 14008G16MPS 2100 -TSRA BKN016CB TEMPO 1806/1818 17008G16MPS 6000 -TSRA BKN016CB
NOTAMshow/hide NOTAM
AWOS   TABLE

Информация о ВПП

ВПП Длина ВПП (м.) Покрытие Курс ВПП Частота ILS
025000Железобетон20110.1
205000Железобетон200110.1

Диспетчерские позиции


Сценарии



Спутниковое изображение